createdAt,value
2022-08-25T15:15:02.082Z,101441.13
2022-08-25T15:17:29.338Z,101451.13
2022-08-25T15:19:57.018Z,101450.25
2022-08-25T15:22:24.227Z,101450.09
2022-08-25T15:24:53.946Z,101449.00
2022-08-25T15:27:22.729Z,101440.66
2022-08-25T15:29:49.692Z,101443.56
2022-08-25T15:32:18.475Z,101443.91
2022-08-25T15:34:45.814Z,101443.84
2022-08-25T15:37:14.711Z,101448.66
2022-08-25T15:39:44.548Z,101444.75
2022-08-25T15:42:12.315Z,101441.31
2022-08-25T15:44:39.535Z,101445.06
2022-08-25T15:47:06.610Z,101437.09
2022-08-25T15:49:40.652Z,101441.00
2022-08-25T15:52:07.504Z,101443.56
2022-08-25T15:54:34.355Z,101439.47
2022-08-25T15:57:03.184Z,101448.44
2022-08-25T15:59:35.527Z,101446.22
2022-08-25T16:02:03.264Z,101446.69
2022-08-25T16:04:31.630Z,101442.06
2022-08-25T16:07:00.546Z,101451.81
2022-08-25T16:09:28.868Z,101445.69
2022-08-25T16:12:00.550Z,101456.66
2022-08-25T16:14:30.951Z,101450.34
2022-08-25T16:16:58.014Z,101459.22
2022-08-25T16:19:25.746Z,101449.31
2022-08-25T16:21:52.540Z,101455.44
2022-08-25T16:24:20.840Z,101451.59
2022-08-25T16:26:48.690Z,101449.06
2022-08-25T16:29:15.779Z,101449.50
2022-08-25T16:31:43.536Z,101449.91
2022-08-25T16:34:10.489Z,101449.75
2022-08-25T16:36:39.075Z,101452.34
2022-08-25T16:39:09.893Z,101452.88
2022-08-25T16:41:39.347Z,101457.81
2022-08-25T16:44:10.053Z,101457.69
2022-08-25T16:46:40.758Z,101454.41
2022-08-25T16:49:09.350Z,101454.66
2022-08-25T16:51:38.655Z,101455.84
2022-08-25T16:54:24.742Z,101451.78
2022-08-25T16:56:54.771Z,101449.31
2022-08-25T16:59:23.540Z,101456.56
2022-08-25T17:01:52.404Z,101458.00
2022-08-25T17:04:20.124Z,101453.34
2022-08-25T17:06:49.316Z,101451.03
2022-08-25T17:09:24.133Z,101457.78
2022-08-25T17:11:56.831Z,101455.06
2022-08-25T17:14:24.996Z,101449.03
2022-08-25T17:16:54.734Z,101449.13
2022-08-25T17:19:23.576Z,101444.59
2022-08-25T17:21:50.835Z,101445.56
2022-08-25T17:24:18.044Z,101444.06
2022-08-25T17:26:52.177Z,101440.03
2022-08-25T17:29:20.566Z,101451.06
2022-08-25T17:31:48.647Z,101450.69
2022-08-25T17:34:16.378Z,101452.06
2022-08-25T17:36:44.037Z,101446.03
2022-08-25T17:39:13.403Z,101444.41
2022-08-25T17:41:44.050Z,101445.00
2022-08-25T17:44:11.007Z,101441.16
2022-08-25T17:46:44.145Z,101446.53
2022-08-25T17:49:15.470Z,101450.81
2022-08-25T17:51:42.603Z,101450.69
2022-08-25T17:54:09.483Z,101453.44
2022-08-25T17:56:37.861Z,101451.63
2022-08-25T17:59:04.904Z,101460.50
2022-08-25T18:01:33.674Z,101467.31
2022-08-25T18:04:01.957Z,101467.50
2022-08-25T18:06:30.304Z,101463.00
2022-08-25T18:08:59.953Z,101466.59
2022-08-25T18:11:27.505Z,101472.91
2022-08-25T18:13:55.068Z,101473.09
2022-08-25T18:16:22.889Z,101472.44
2022-08-25T18:18:50.422Z,101473.13
2022-08-25T18:21:20.943Z,101487.53
2022-08-25T18:23:49.652Z,101485.66
2022-08-25T18:26:17.072Z,101486.88
2022-08-25T18:28:48.895Z,101487.22
2022-08-25T18:31:16.037Z,101494.50
2022-08-25T18:33:46.955Z,101499.91
2022-08-25T18:36:14.039Z,101491.94
2022-08-25T18:39:01.563Z,101495.66
2022-08-25T18:41:34.700Z,101489.66
2022-08-25T18:44:01.571Z,101495.22
2022-08-25T18:46:28.426Z,101497.28
2022-08-25T18:48:55.742Z,101512.16
2022-08-25T18:51:23.971Z,101504.16
2022-08-25T18:53:54.690Z,101515.13
2022-08-25T18:56:27.790Z,101514.88
2022-08-25T18:58:54.555Z,101518.41
2022-08-25T19:01:21.639Z,101525.06
2022-08-25T19:03:49.408Z,101516.72
2022-08-25T19:06:16.236Z,101534.16
2022-08-25T19:08:43.611Z,101530.22
2022-08-25T19:11:12.134Z,101536.63
2022-08-25T19:13:39.547Z,101538.13
2022-08-25T19:16:11.773Z,101531.66
2022-08-25T19:18:39.162Z,101543.78
2022-08-25T19:21:06.581Z,101543.13
2022-08-25T19:23:33.664Z,101537.50
2022-08-25T19:26:00.463Z,101543.88
2022-08-25T19:28:28.660Z,101545.38
2022-08-25T19:30:55.474Z,101539.13
2022-08-25T19:33:42.699Z,101546.22
2022-08-25T19:36:09.803Z,101547.22
2022-08-25T19:38:37.566Z,101551.09
2022-08-25T19:41:10.735Z,101547.69
2022-08-25T19:43:55.180Z,101544.31
2022-08-25T19:46:25.613Z,101543.13
2022-08-25T19:48:52.488Z,101549.72
2022-08-25T19:51:21.762Z,101553.41
2022-08-25T19:53:53.610Z,101559.84
2022-08-25T19:56:22.617Z,101560.28
2022-08-25T19:58:51.303Z,101552.38
2022-08-25T20:01:19.196Z,101558.91
2022-08-25T20:03:46.531Z,101560.38
2022-08-25T20:06:14.359Z,101570.50
2022-08-25T20:08:42.911Z,101569.81
2022-08-25T20:11:09.751Z,101571.78
2022-08-25T20:13:36.808Z,101573.41
2022-08-25T20:16:05.645Z,101570.78
2022-08-25T20:18:32.613Z,101573.63
2022-08-25T20:20:59.697Z,101577.66
2022-08-25T20:23:44.916Z,101588.59
2022-08-25T20:26:11.668Z,101604.25
2022-08-25T20:28:42.157Z,101600.69
2022-08-25T20:31:10.760Z,101598.16
2022-08-25T20:33:37.677Z,101597.19
2022-08-25T20:36:07.484Z,101603.25
2022-08-25T20:38:34.302Z,101602.09
2022-08-25T20:41:01.600Z,101593.69
2022-08-25T20:43:29.906Z,101599.19
2022-08-25T20:46:00.945Z,101601.41
2022-08-25T20:48:29.248Z,101601.97
2022-08-25T20:50:57.638Z,101606.66
2022-08-25T20:53:25.765Z,101604.81
2022-08-25T20:55:52.567Z,101605.66
2022-08-25T20:58:20.453Z,101598.53
2022-08-25T21:00:47.311Z,101609.72
2022-08-25T21:03:14.102Z,101601.47
2022-08-25T21:05:42.924Z,101607.03
2022-08-25T21:08:10.460Z,101593.13
2022-08-25T21:10:37.989Z,101600.63
2022-08-25T21:13:04.731Z,101608.41
2022-08-25T21:15:31.594Z,101602.47
2022-08-25T21:17:58.447Z,101606.19
2022-08-25T21:20:26.345Z,101608.34
2022-08-25T21:22:54.602Z,101615.44
2022-08-25T21:25:21.784Z,101621.03
2022-08-25T21:27:49.326Z,101613.19
2022-08-25T21:30:17.384Z,101622.16
2022-08-25T21:32:53.613Z,101624.13
2022-08-25T21:35:22.390Z,101618.03
2022-08-25T21:37:53.093Z,101617.34
2022-08-25T21:40:23.040Z,101615.47
2022-08-25T21:42:50.168Z,101631.00
2022-08-25T21:45:17.115Z,101630.16
2022-08-25T21:47:47.883Z,101623.75
2022-08-25T21:50:14.827Z,101626.47
2022-08-25T21:52:42.295Z,101633.72
2022-08-25T21:55:16.011Z,101632.72
2022-08-25T21:57:44.525Z,101635.44
2022-08-25T22:00:13.348Z,101636.72
2022-08-25T22:02:40.250Z,101634.16
2022-08-25T22:05:11.608Z,101630.78
2022-08-25T22:07:41.712Z,101629.53
2022-08-25T22:10:12.779Z,101634.63
2022-08-25T22:12:47.188Z,101632.78
2022-08-25T22:15:15.614Z,101636.31
2022-08-25T22:17:42.718Z,101637.03
2022-08-25T22:20:10.833Z,101645.13
2022-08-25T22:22:37.614Z,101641.16
2022-08-25T22:25:05.478Z,101647.59
2022-08-25T22:27:32.929Z,101646.75
2022-08-25T22:30:02.222Z,101650.31
2022-08-25T22:32:29.599Z,101644.19
2022-08-25T22:34:56.386Z,101640.66
2022-08-25T22:37:23.294Z,101653.00
2022-08-25T22:39:50.060Z,101637.94
2022-08-25T22:42:17.265Z,101647.91
2022-08-25T22:44:44.067Z,101636.53
2022-08-25T22:47:12.527Z,101639.38
2022-08-25T22:49:40.255Z,101637.69
2022-08-25T22:52:11.411Z,101640.69
2022-08-25T22:54:41.055Z,101643.69
2022-08-25T22:57:07.896Z,101648.09
2022-08-25T22:59:34.748Z,101652.09
2022-08-25T23:02:01.925Z,101647.72
2022-08-25T23:04:30.414Z,101638.19
2022-08-25T23:06:57.253Z,101646.00
2022-08-25T23:09:24.945Z,101650.72
2022-08-25T23:11:51.846Z,101642.91
2022-08-25T23:14:19.206Z,101657.25
2022-08-25T23:16:46.154Z,101646.75
2022-08-25T23:19:14.417Z,101651.44
2022-08-25T23:22:02.950Z,101655.00
2022-08-25T23:24:31.153Z,101655.00
2022-08-25T23:26:58.895Z,101659.69
2022-08-25T23:29:25.967Z,101648.19
2022-08-25T23:31:53.610Z,101647.91
2022-08-25T23:34:21.591Z,101651.75
2022-08-25T23:36:50.374Z,101659.84
2022-08-25T23:39:17.322Z,101654.59
2022-08-25T23:41:44.484Z,101668.25
2022-08-25T23:44:11.966Z,101659.59
2022-08-25T23:46:44.711Z,101656.19
2022-08-25T23:49:12.504Z,101653.22
2022-08-25T23:51:41.138Z,101656.03
2022-08-25T23:54:11.832Z,101651.63
2022-08-25T23:56:44.776Z,101650.34
2022-08-25T23:59:18.808Z,101646.94
